Аэропорт: Жуляны. Киев

ICAO: UKKK

METAR:
2021-10-23 01:00:00
UKKK 230100Z 23003MPS CAVOK 08/01 Q1012 R26/CLRD70 NOSIG
METAR:
2021-10-22 23:03:00
TAF UKKK 222303Z 2300/2324 25004G09MPS 9999 BKN030 TX12/2312Z TN05/2303Z TEMPO 2300/2305 SCT007 SCT015CB BECMG 2305/2307 27007G12MPS TEMPO 2307/2312 29009G15MPS SCT015CB BKN020 BECMG 2314/2316 28004G09MPS